Time;durP1;ratioP1;P1;durP2;ratioP2;P2;SDS_P1;SDS_P2;PMS_P1;PMS_P2;Temp;Humidity;BMP_temperature;BMP_pressure;BME280_temperature;BME280_humidity;BME280_pressure;Samples;Min_cycle;Max_cycle;Signal;HPM_P1;HPM_P2
2022/05/24 00:03:12;;;;;;;73.33;68.13;;;;;;;12.52;100.00;100179.79;2048530;69;32780;-76
2022/05/24 00:05:42;;;;;;;77.90;72.60;;;;;;;12.44;100.00;100191.12;1939016;73;26631;-76
2022/05/24 00:08:12;;;;;;;76.97;71.70;;;;;;;12.38;100.00;100189.57;1938054;73;26210;-76
2022/05/24 00:10:43;;;;;;;79.37;73.90;;;;;;;12.43;100.00;100192.81;1941247;74;26286;-77
2022/05/24 00:13:13;;;;;;;78.97;73.47;;;;;;;12.47;100.00;100191.88;1937633;73;26204;-71
2022/05/24 00:15:44;;;;;;;75.60;70.30;;;;;;;12.43;100.00;100195.03;1937831;74;26666;-76
2022/05/24 00:18:16;;;;;;;77.90;72.40;;;;;;;12.48;100.00;100189.91;1966033;73;26202;-76
2022/05/24 00:20:52;;;;;;;75.17;69.90;;;;;;;12.38;100.00;100188.74;1937551;74;26204;-77
2022/05/24 00:23:24;;;;;;;75.43;70.10;;;;;;;12.37;100.00;100189.87;1937680;73;26294;-76
2022/05/24 00:25:56;;;;;;;76.10;70.87;;;;;;;12.32;100.00;100183.88;1937331;73;26215;-76
2022/05/24 00:28:29;;;;;;;75.10;69.73;;;;;;;12.21;100.00;100191.62;1937586;74;26261;-77
2022/05/24 00:31:00;;;;;;;72.73;67.53;;;;;;;12.23;100.00;100191.32;1944199;73;26751;-72
2022/05/24 00:33:31;;;;;;;79.10;73.70;;;;;;;12.32;100.00;100188.85;1935993;73;26742;-76
2022/05/24 00:36:02;;;;;;;73.33;68.03;;;;;;;12.18;100.00;100190.86;2017093;71;26195;-76
2022/05/24 00:38:36;;;;;;;78.77;73.37;;;;;;;12.12;100.00;100187.92;2016700;70;26199;-76
2022/05/24 00:44:25;;;;;;;79.57;74.17;;;;;;;12.21;100.00;100174.91;2038272;69;32611;-70
2022/05/24 00:46:59;;;;;;;77.40;72.00;;;;;;;12.17;100.00;100190.60;1945801;73;26301;-76
2022/05/24 00:49:32;;;;;;;77.37;72.07;;;;;;;12.11;100.00;100191.00;1936491;73;26200;-76
2022/05/24 00:52:06;;;;;;;82.20;76.70;;;;;;;12.12;100.00;100192.09;2005390;70;26215;-70
2022/05/24 00:54:36;;;;;;;78.37;73.07;;;;;;;12.10;100.00;100194.38;1929726;73;26205;-70
2022/05/24 00:57:10;;;;;;;81.60;76.17;;;;;;;12.08;100.00;100195.81;1980747;72;26325;-70
2022/05/24 00:59:43;;;;;;;84.07;78.47;;;;;;;12.16;100.00;100197.30;1976500;72;26272;-76
2022/05/24 01:02:13;;;;;;;78.63;73.40;;;;;;;12.09;100.00;100192.73;1976793;72;26284;-70
2022/05/24 01:04:44;;;;;;;80.13;74.83;;;;;;;12.07;100.00;100196.94;1903115;74;26216;-70
2022/05/24 01:07:15;;;;;;;86.03;80.67;;;;;;;12.05;100.00;100194.48;1983585;72;26201;-76
2022/05/24 01:12:56;;;;;;;84.20;78.90;;;;;;;12.02;100.00;100194.29;2060767;69;32776;-76
2022/05/24 01:15:28;;;;;;;79.13;73.90;;;;;;;12.04;100.00;100203.14;1940119;73;26282;-71
2022/05/24 01:18:02;;;;;;;79.80;74.50;;;;;;;11.94;100.00;100204.77;1942094;73;26358;-77
2022/05/24 01:20:32;;;;;;;77.10;71.90;;;;;;;12.00;100.00;100206.28;1966472;72;26234;-71
2022/05/24 01:23:23;;;;;;;79.07;73.77;;;;;;;11.98;100.00;100206.59;1931033;73;26203;-71
2022/05/24 01:25:59;;;;;;;81.23;75.73;;;;;;;11.89;100.00;100207.08;1966403;72;26252;-71
2022/05/24 01:28:33;;;;;;;85.43;79.83;;;;;;;11.98;100.00;100205.20;1937549;73;26287;-71
2022/05/24 01:36:58;;;;;;;74.20;69.00;;;;;;;12.04;100.00;100205.92;2019293;70;26282;-76
2022/05/24 01:39:29;;;;;;;75.73;70.47;;;;;;;12.12;100.00;100206.58;2012749;70;26642;-77
2022/05/24 01:41:59;;;;;;;66.80;61.70;;;;;;;12.14;100.00;100204.33;2016022;70;26206;-77
2022/05/24 01:44:32;;;;;;;67.57;62.37;;;;;;;12.13;100.00;100204.89;2022048;70;26353;-76
2022/05/24 01:47:03;;;;;;;70.40;65.20;;;;;;;12.14;100.00;100204.33;2013113;70;26284;-71
2022/05/24 01:49:38;;;;;;;76.07;70.77;;;;;;;12.03;100.00;100208.44;2023170;70;26218;-71
2022/05/24 01:52:11;;;;;;;67.77;62.57;;;;;;;12.02;100.00;100210.99;2015376;70;26710;-71
2022/05/24 01:57:52;;;;;;;71.73;66.33;;;;;;;12.01;100.00;100210.73;2015269;69;33194;-76
2022/05/24 02:00:23;;;;;;;69.90;64.73;;;;;;;12.04;100.00;100217.05;1939805;73;26731;-76
2022/05/24 02:02:53;;;;;;;73.30;68.00;;;;;;;11.92;100.00;100219.54;1932481;74;26297;-76
2022/05/24 02:08:40;;;;;;;75.67;70.27;;;;;;;11.97;100.00;100215.27;2049224;69;33168;-71
2022/05/24 02:11:10;;;;;;;73.27;68.07;;;;;;;11.92;100.00;100218.15;1938201;73;26240;-76
2022/05/24 02:13:44;;;;;;;80.00;74.60;;;;;;;11.99;100.00;100214.38;1934347;73;26217;-76
2022/05/24 02:16:17;;;;;;;75.27;69.97;;;;;;;11.91;100.00;100213.14;1931146;74;26317;-70
2022/05/24 02:18:50;;;;;;;75.10;69.80;;;;;;;11.90;100.00;100214.27;1943939;73;26683;-75
2022/05/24 02:21:21;;;;;;;75.67;70.37;;;;;;;11.97;100.00;100220.83;1937680;73;26220;-70
2022/05/24 02:24:45;;;;;;;68.93;63.57;;;;;;;11.97;100.00;100215.27;1965539;72;26315;-70
2022/05/24 02:27:15;;;;;;;74.47;69.27;;;;;;;12.03;100.00;100219.58;1938766;73;26211;-75
2022/05/24 02:29:45;;;;;;;70.17;64.97;;;;;;;12.11;100.00;100221.06;1936879;73;26317;-76
2022/05/24 02:32:15;;;;;;;70.27;64.97;;;;;;;12.04;100.00;100224.02;2012740;70;26211;-75
2022/05/24 02:34:45;;;;;;;71.37;66.17;;;;;;;11.95;100.00;100223.91;2016716;71;26222;-70
2022/05/24 02:37:15;;;;;;;69.40;64.00;;;;;;;11.99;100.00;100231.90;2014903;70;26234;-70
2022/05/24 02:42:35;;;;;;;69.13;63.93;;;;;;;12.00;100.00;100222.98;2011862;70;26219;-70
2022/05/24 02:45:08;;;;;;;69.43;64.33;;;;;;;11.94;100.00;100225.63;2012242;70;26696;-75
2022/05/24 02:47:38;;;;;;;67.30;62.20;;;;;;;12.02;100.00;100222.95;2014527;70;26234;-70
2022/05/24 02:50:11;;;;;;;71.30;66.03;;;;;;;11.95;100.00;100227.26;2012699;70;26214;-70
2022/05/24 02:52:41;;;;;;;68.40;63.13;;;;;;;11.96;100.00;100228.91;2010554;70;26666;-75
2022/05/24 02:55:14;;;;;;;74.20;68.93;;;;;;;12.06;100.00;100233.72;2005748;70;26688;-75
2022/05/24 02:57:44;;;;;;;73.37;68.13;;;;;;;11.97;100.00;100228.62;1984962;72;26351;-75
2022/05/24 03:00:18;;;;;;;69.97;64.77;;;;;;;11.77;100.00;100234.01;1980855;72;26692;-75
2022/05/24 03:02:50;;;;;;;72.33;67.23;;;;;;;11.87;100.00;100232.98;1982404;72;26193;-69
2022/05/24 03:05:21;;;;;;;76.83;71.53;;;;;;;11.90;100.00;100235.70;1984241;72;26615;-75
2022/05/24 03:10:43;;;;;;;73.90;68.50;;;;;;;11.97;100.00;100238.92;1937787;73;26752;-75
2022/05/24 03:16:02;;;;;;;76.53;71.03;;;;;;;12.07;100.00;100242.87;1937698;74;26213;-75
2022/05/24 03:18:32;;;;;;;72.37;66.97;;;;;;;12.06;100.00;100244.86;1936912;74;26298;-75
2022/05/24 03:21:03;;;;;;;73.57;68.27;;;;;;;11.90;100.00;100242.10;1937129;74;26294;-70
2022/05/24 03:23:33;;;;;;;67.67;62.57;;;;;;;12.10;100.00;100240.87;1937032;74;26184;-70
2022/05/24 03:26:04;;;;;;;73.00;67.80;;;;;;;12.04;100.00;100244.33;1937000;74;26208;-75
2022/05/24 03:28:34;;;;;;;71.20;66.00;;;;;;;12.06;100.00;100246.81;1937061;74;26268;-70
2022/05/24 03:31:07;;;;;;;73.43;67.93;;;;;;;12.01;100.00;100249.69;1937043;74;26216;-75
2022/05/24 03:33:38;;;;;;;70.73;65.40;;;;;;;12.04;100.00;100244.89;1936961;74;26209;-75
2022/05/24 03:39:14;;;;;;;72.47;66.97;;;;;;;12.05;100.00;100245.16;2060491;69;32661;-71
2022/05/24 03:41:46;;;;;;;68.17;62.87;;;;;;;11.89;100.00;100259.12;1999956;70;26308;-71
2022/05/24 03:44:16;;;;;;;67.77;62.37;;;;;;;12.00;100.00;100259.17;1943545;73;26255;-76
2022/05/24 03:46:46;;;;;;;72.90;67.40;;;;;;;11.95;100.00;100260.09;1937582;73;26223;-76
2022/05/24 03:49:17;;;;;;;70.87;65.53;;;;;;;11.92;100.00;100266.85;1966214;72;26693;-76
2022/05/24 03:51:47;;;;;;;71.20;65.90;;;;;;;11.84;100.00;100267.00;1938269;73;26310;-71
2022/05/24 03:54:17;;;;;;;73.47;67.90;;;;;;;11.91;100.00;100275.77;1966594;72;26291;-76
2022/05/24 03:59:37;;;;;;;66.77;61.60;;;;;;;11.96;100.00;100277.63;1933131;74;26695;-71
2022/05/24 04:05:13;;;;;;;66.53;61.03;;;;;;;11.94;100.00;100269.56;2045793;69;32674;-75
2022/05/24 04:07:44;;;;;;;67.73;62.33;;;;;;;11.77;100.00;100273.52;2018494;70;26665;-78
2022/05/24 04:10:16;;;;;;;68.53;62.93;;;;;;;11.89;100.00;100271.09;2017039;70;26223;-77
2022/05/24 04:12:47;;;;;;;71.07;65.57;;;;;;;11.89;100.00;100272.48;2017210;71;26194;-74
2022/05/24 04:15:20;;;;;;;69.30;63.90;;;;;;;11.86;100.00;100275.85;2017002;71;26191;-74
2022/05/24 04:17:52;;;;;;;67.37;62.17;;;;;;;11.88;100.00;100272.77;2014410;70;26723;-77
2022/05/24 04:20:25;;;;;;;72.30;66.93;;;;;;;11.76;100.00;100281.07;2002644;70;26227;-76
2022/05/24 04:22:57;;;;;;;69.40;63.90;;;;;;;11.85;100.00;100278.41;2021657;70;26875;-76
2022/05/24 04:25:28;;;;;;;69.43;64.03;;;;;;;11.89;100.00;100282.78;2013174;70;26207;-78
2022/05/24 04:27:58;;;;;;;76.07;70.17;;;;;;;11.92;100.00;100290.50;2006791;70;26514;-75
2022/05/24 04:30:28;;;;;;;75.77;69.97;;;;;;;11.86;100.00;100289.77;2017358;70;26327;-77
2022/05/24 04:32:59;;;;;;;77.47;71.73;;;;;;;11.90;100.00;100295.54;2011487;70;26313;-76
2022/05/24 04:35:29;;;;;;;76.00;70.60;;;;;;;11.98;100.00;100290.09;2005085;70;26768;-75
2022/05/24 04:38:01;;;;;;;79.70;73.90;;;;;;;11.88;100.00;100295.87;2019735;70;26259;-79
2022/05/24 04:43:19;;;;;;;80.47;74.87;;;;;;;11.83;100.00;100295.95;2017001;70;26443;-75
2022/05/24 04:45:53;;;;;;;76.47;70.97;;;;;;;11.84;100.00;100293.44;2022181;70;26205;-74
2022/05/24 04:48:22;;;;;;;80.10;73.83;;;;;;;11.87;100.00;100298.39;2016353;70;26303;-77
2022/05/24 04:50:55;;;;;;;79.73;74.13;;;;;;;11.77;100.00;100302.17;2011603;70;26207;-75
2022/05/24 04:53:27;;;;;;;78.20;72.40;;;;;;;11.83;100.00;100307.09;2022038;70;26759;-74
2022/05/24 04:55:57;;;;;;;76.20;70.40;;;;;;;11.69;100.00;100310.37;2007473;70;26218;-75
2022/05/24 04:58:28;;;;;;;79.90;74.27;;;;;;;11.97;100.00;100311.28;1983350;72;26299;-75
2022/05/24 05:00:58;;;;;;;77.83;72.17;;;;;;;11.83;100.00;100316.27;1976870;72;26197;-77
2022/05/24 05:03:28;;;;;;;74.03;68.10;;;;;;;11.79;100.00;100315.23;1977802;70;26235;-77
2022/05/24 05:05:59;;;;;;;70.30;64.60;;;;;;;11.95;100.00;100319.94;1998011;72;26261;-74
2022/05/24 05:08:29;;;;;;;76.27;70.17;;;;;;;12.06;100.00;100325.59;1997695;72;26215;-74
2022/05/24 05:10:59;;;;;;;78.27;72.37;;;;;;;12.05;100.00;100323.92;1997661;72;26679;-75
2022/05/24 05:13:30;;;;;;;76.07;70.10;;;;;;;12.03;100.00;100328.13;1997766;72;26227;-76
2022/05/24 05:16:00;;;;;;;75.77;69.77;;;;;;;12.05;100.00;100328.10;1997326;72;26738;-76
2022/05/24 05:18:30;;;;;;;78.90;72.90;;;;;;;12.13;100.00;100332.95;1997120;72;26185;-75
2022/05/24 05:21:02;;;;;;;77.40;71.57;;;;;;;12.21;100.00;100332.80;1997142;72;26220;-75
2022/05/24 05:23:33;;;;;;;74.30;68.50;;;;;;;12.36;100.00;100338.08;1997135;72;26261;-74
2022/05/24 05:26:03;;;;;;;77.43;71.33;;;;;;;12.26;100.00;100336.88;1997096;72;26253;-74
2022/05/24 05:28:33;;;;;;;81.33;75.33;;;;;;;12.32;100.00;100341.22;1997216;72;26283;-74
2022/05/24 05:31:22;;;;;;;79.83;73.93;;;;;;;12.42;100.00;100343.78;1997105;72;26168;-79
2022/05/24 05:33:52;;;;;;;79.60;73.80;;;;;;;12.49;100.00;100346.17;1997345;72;26197;-75
2022/05/24 05:36:24;;;;;;;72.50;66.70;;;;;;;12.51;100.00;100349.45;1997227;72;26215;-74
2022/05/24 05:38:54;;;;;;;64.90;59.40;;;;;;;12.60;100.00;100353.16;1996928;72;26217;-75
2022/05/24 05:41:27;;;;;;;68.80;63.40;;;;;;;12.62;100.00;100352.30;1997458;72;26171;-77
2022/05/24 05:43:59;;;;;;;66.53;61.03;;;;;;;12.54;100.00;100359.41;1997195;72;26687;-75
2022/05/24 05:46:29;;;;;;;64.93;59.43;;;;;;;12.52;100.00;100365.87;1997111;72;26224;-78
2022/05/24 05:49:00;;;;;;;67.50;62.00;;;;;;;12.43;100.00;100364.11;1997512;72;26242;-77
2022/05/24 05:51:30;;;;;;;83.07;77.17;;;;;;;12.48;100.00;100369.02;1997028;72;26738;-75
2022/05/24 05:54:00;;;;;;;78.03;72.33;;;;;;;12.38;100.00;100376.17;1996990;72;26750;-77
2022/05/24 05:56:30;;;;;;;78.07;72.20;;;;;;;12.39;100.00;100374.22;1997131;71;26213;-74
2022/05/24 05:59:00;;;;;;;75.87;70.23;;;;;;;12.27;100.00;100376.13;1997366;72;26204;-75
2022/05/24 06:01:31;;;;;;;75.03;69.33;;;;;;;12.44;100.00;100374.95;1997161;72;26205;-78
2022/05/24 06:04:02;;;;;;;73.63;68.03;;;;;;;12.31;100.00;100371.03;1995080;72;26252;-74
2022/05/24 06:06:34;;;;;;;76.03;70.40;;;;;;;12.33;100.00;100381.27;1979865;72;26714;-76
2022/05/24 06:12:13;;;;;;;78.87;72.83;;;;;;;12.32;100.00;100370.47;2052655;69;32582;-71
2022/05/24 06:14:43;;;;;;;79.77;73.87;;;;;;;12.33;100.00;100392.41;1932354;73;26695;-71
2022/05/24 06:17:14;;;;;;;81.73;75.70;;;;;;;12.28;100.00;100402.25;1943395;73;26176;-75
2022/05/24 06:19:45;;;;;;;81.53;75.63;;;;;;;12.48;100.00;100407.19;1965254;72;26209;-74
2022/05/24 06:22:15;;;;;;;75.57;70.07;;;;;;;12.54;100.00;100409.55;1937545;73;26344;-71
2022/05/24 06:24:46;;;;;;;83.27;77.47;;;;;;;12.57;100.00;100416.48;1937558;73;26212;-71
2022/05/24 06:27:19;;;;;;;77.30;71.50;;;;;;;12.84;100.00;100418.41;1934062;73;26699;-75
2022/05/24 06:29:49;;;;;;;80.87;75.03;;;;;;;12.70;100.00;100415.66;1934517;73;26224;-71
2022/05/24 06:32:20;;;;;;;82.10;76.30;;;;;;;12.70;100.00;100417.88;1966049;72;26736;-71
2022/05/24 06:34:52;;;;;;;81.30;75.30;;;;;;;12.70;100.00;100423.45;1933977;73;26733;-71
2022/05/24 06:37:22;;;;;;;77.97;72.37;;;;;;;12.78;100.00;100432.48;1934434;73;26204;-75
2022/05/24 06:39:53;;;;;;;77.93;72.30;;;;;;;12.78;100.00;100436.66;1934231;73;26674;-75
2022/05/24 06:42:24;;;;;;;77.87;72.07;;;;;;;13.11;100.00;100431.80;1937492;73;26211;-75
2022/05/24 06:44:56;;;;;;;77.60;71.93;;;;;;;13.00;100.00;100435.93;1937587;73;26678;-75
2022/05/24 06:47:26;;;;;;;74.40;68.77;;;;;;;13.08;100.00;100437.98;1933936;73;26281;-75
2022/05/24 06:49:56;;;;;;;74.33;68.83;;;;;;;13.08;100.00;100442.16;1933273;73;26815;-75
2022/05/24 06:52:27;;;;;;;76.33;70.73;;;;;;;13.04;100.00;100441.70;2014248;70;26443;-72
2022/05/24 06:54:57;;;;;;;73.10;67.57;;;;;;;13.15;100.00;100452.91;2011300;70;26467;-71
2022/05/24 07:03:23;;;;;;;81.60;75.90;;;;;;;13.20;100.00;100455.59;2012400;70;26331;-75
2022/05/24 07:05:54;;;;;;;81.07;75.50;;;;;;;13.32;100.00;100458.67;2015948;70;26281;-67
2022/05/24 07:08:25;;;;;;;78.27;72.77;;;;;;;13.26;100.00;100459.94;2028884;70;26256;-68
2022/05/24 07:10:57;;;;;;;77.87;72.30;;;;;;;13.38;100.00;100460.22;2012289;70;26709;-68
2022/05/24 07:13:27;;;;;;;75.17;69.87;;;;;;;13.52;100.00;100466.56;2017597;70;26682;-69
2022/05/24 07:15:58;;;;;;;75.43;70.03;;;;;;;13.57;100.00;100468.42;2027591;70;26191;-68
2022/05/24 07:18:29;;;;;;;77.50;72.10;;;;;;;13.57;100.00;100473.44;2016671;71;26233;-67
2022/05/24 07:21:00;;;;;;;85.07;79.40;;;;;;;13.48;100.00;100467.51;2012582;70;26325;-66
2022/05/24 07:23:31;;;;;;;85.27;79.60;;;;;;;13.35;100.00;100480.95;2016607;71;26696;-67
2022/05/24 07:26:13;;;;;;;82.20;76.70;;;;;;;13.35;100.00;100472.58;2016738;70;26287;-66
2022/05/24 07:28:43;;;;;;;74.63;68.50;;;;;;;13.45;100.00;100476.52;2012431;70;26651;-67
2022/05/24 07:31:14;;;;;;;72.67;67.33;;;;;;;14.20;100.00;100475.27;2018367;70;26222;-65
2022/05/24 07:33:45;;;;;;;78.20;72.50;;;;;;;14.92;100.00;100472.21;2005562;70;26222;-66
2022/05/24 07:36:18;;;;;;;76.17;70.77;;;;;;;14.64;100.00;100479.97;2003691;70;26285;-65
2022/05/24 07:38:50;;;;;;;74.23;68.97;;;;;;;14.74;100.00;100479.70;2017110;70;26270;-67
2022/05/24 07:46:57;;;;;;;72.93;67.93;;;;;;;14.66;100.00;100494.47;2011876;70;26310;-65
2022/05/24 07:49:28;;;;;;;70.77;65.97;;;;;;;14.61;100.00;100489.58;2013295;70;26214;-65
2022/05/24 07:51:58;;;;;;;72.10;67.50;;;;;;;14.41;100.00;100490.39;2008267;70;26324;-66
2022/05/24 07:54:29;;;;;;;70.67;66.17;;;;;;;14.30;100.00;100488.95;2011808;70;26277;-66
2022/05/24 07:56:59;;;;;;;71.87;67.37;;;;;;;14.23;100.00;100495.57;1979222;72;26196;-65
2022/05/24 07:59:29;;;;;;;75.73;70.53;;;;;;;14.23;100.00;100491.38;1990093;70;26544;-66
2022/05/24 08:01:59;;;;;;;72.43;67.50;;;;;;;14.39;100.00;100498.82;1997349;72;26232;-66
2022/05/24 08:04:30;;;;;;;75.33;70.23;;;;;;;14.22;100.00;100495.31;1997310;72;26251;-66
2022/05/24 08:07:01;;;;;;;76.90;71.70;;;;;;;14.17;100.00;100507.17;1997336;72;26732;-66
2022/05/24 08:09:31;;;;;;;76.80;71.73;;;;;;;14.03;100.00;100507.27;1953986;73;26294;-66
2022/05/24 08:12:02;;;;;;;76.20;71.10;;;;;;;13.96;100.00;100514.66;1941272;74;26215;-66
2022/05/24 08:14:32;;;;;;;75.20;70.10;;;;;;;14.09;100.00;100517.97;1953400;73;26176;-66
2022/05/24 08:17:02;;;;;;;75.53;70.43;;;;;;;14.00;100.00;100521.83;1941286;74;26208;-67
2022/05/24 08:19:34;;;;;;;71.57;66.77;;;;;;;14.23;100.00;100523.51;1953338;73;26195;-69
2022/05/24 08:22:06;;;;;;;73.97;69.07;;;;;;;14.54;100.00;100515.20;1941260;74;26215;-69
2022/05/24 08:24:37;;;;;;;66.50;62.00;;;;;;;15.20;100.00;100515.58;1953450;73;26292;-68
2022/05/24 08:27:11;;;;;;;68.53;64.33;;;;;;;15.62;100.00;100516.86;1941208;74;26183;-71
2022/05/24 08:29:44;;;;;;;68.00;63.80;;;;;;;15.24;100.00;100519.38;1953531;73;26401;-70
2022/05/24 08:32:16;;;;;;;72.17;67.77;;;;;;;15.10;100.00;100519.25;1941392;74;26263;-70
2022/05/24 08:34:48;;;;;;;71.37;66.87;;;;;;;15.07;100.00;100515.69;1953294;73;26179;-67
2022/05/24 08:37:18;;;;;;;70.17;65.67;;;;;;;15.13;100.00;100522.80;1941243;74;26213;-69
2022/05/24 08:39:49;;;;;;;71.83;67.43;;;;;;;15.07;100.00;100529.67;1953306;73;26289;-68
2022/05/24 08:48:23;;;;;;;65.53;61.70;;;;;;;15.02;100.00;100521.68;2015587;70;26701;-69
2022/05/24 08:50:57;;;;;;;65.80;61.80;;;;;;;15.35;100.00;100522.14;2034152;70;26260;-69
2022/05/24 08:53:32;;;;;;;64.60;60.83;;;;;;;15.45;100.00;100522.39;1934705;73;26241;-70
2022/05/24 08:56:05;;;;;;;65.23;61.53;;;;;;;15.52;100.00;100520.56;1936728;73;26224;-69
2022/05/24 08:58:38;;;;;;;68.00;64.40;;;;;;;15.66;100.00;100518.45;1931005;74;26313;-69
2022/05/24 09:04:17;;;;;;;63.97;60.37;;;;;;;15.94;100.00;100516.41;2051329;69;32618;-71
2022/05/24 09:10:00;;;;;;;67.07;63.47;;;;;;;15.87;100.00;100519.46;2060855;69;32637;-71
2022/05/24 09:12:38;;;;;;;71.53;67.23;;;;;;;15.89;100.00;100528.34;2023589;70;26287;-70
2022/05/24 09:15:17;;;;;;;70.17;66.17;;;;;;;16.40;100.00;100521.31;2016528;70;26180;-71
2022/05/24 09:21:01;;;;;;;58.90;55.90;;;;;;;16.33;100.00;100518.20;2052840;69;32618;-71
2022/05/24 09:23:34;;;;;;;53.43;50.70;;;;;;;16.32;100.00;100522.73;1939267;73;24148;-71
2022/05/24 09:26:08;;;;;;;52.07;49.53;;;;;;;16.28;100.00;100524.55;1937770;74;26235;-71
2022/05/24 09:28:50;;;;;;;46.60;44.60;;;;;;;16.55;100.00;100526.99;1969093;72;26205;-71
2022/05/24 09:31:28;;;;;;;37.13;35.40;;;;;;;16.21;100.00;100532.64;1943677;73;26231;-71
2022/05/24 09:34:00;;;;;;;41.53;39.63;;;;;;;15.83;100.00;100533.27;1937770;74;26258;-70
2022/05/24 09:36:37;;;;;;;47.73;45.43;;;;;;;15.72;100.00;100537.55;1933898;73;26200;-71
2022/05/24 09:39:22;;;;;;;47.87;45.53;;;;;;;15.72;100.00;100536.72;2023723;71;26210;-71
2022/05/24 09:41:58;;;;;;;59.97;56.87;;;;;;;15.63;100.00;100543.71;2013161;70;26223;-70
2022/05/24 09:44:30;;;;;;;63.40;59.90;;;;;;;16.12;100.00;100538.83;2008442;70;26287;-71
2022/05/24 09:47:01;;;;;;;52.43;49.83;;;;;;;16.49;100.00;100541.50;2018932;70;26353;-71
2022/05/24 09:49:35;;;;;;;54.57;51.83;;;;;;;16.45;100.00;100540.52;2019737;70;26224;-71
2022/05/24 09:52:13;;;;;;;37.63;35.93;;;;;;;16.68;100.00;100537.80;2004166;70;26716;-71
2022/05/24 09:54:54;;;;;;;38.20;36.40;;;;;;;16.35;100.00;100539.70;2010906;70;26218;-71
2022/05/24 09:57:27;;;;;;;47.23;44.93;;;;;;;16.43;100.00;100538.04;1980043;72;26644;-71
2022/05/24 10:00:07;;;;;;;42.60;40.70;;;;;;;16.73;100.00;100528.61;1969583;72;26642;-71
2022/05/24 10:02:39;;;;;;;42.83;40.80;;;;;;;16.78;100.00;100540.23;1975869;72;26679;-71
2022/05/24 10:05:25;;;;;;;41.43;39.53;;;;;;;16.93;100.00;100534.09;1974653;72;26334;-71
2022/05/24 10:07:59;;;;;;;61.33;58.13;;;;;;;16.88;100.00;100530.64;1975841;72;26745;-70
2022/05/24 10:10:33;;;;;;;47.83;45.63;;;;;;;17.33;100.00;100530.95;1980355;72;24118;-70
2022/05/24 10:16:18;;;;;;;39.43;37.63;;;;;;;17.32;100.00;100533.52;2052950;69;32620;-71
2022/05/24 10:18:54;;;;;;;40.47;38.57;;;;;;;17.16;100.00;100543.06;2015036;71;26309;-71
2022/05/24 10:24:38;;;;;;;40.33;38.33;;;;;;;16.72;100.00;100548.59;2037575;69;32615;-71
2022/05/24 10:27:13;;;;;;;44.00;41.70;;;;;;;16.58;100.00;100566.18;2004821;70;26696;-71
2022/05/24 10:29:49;;;;;;;45.93;43.60;;;;;;;16.50;100.00;100573.42;2014556;70;26242;-71
2022/05/24 10:38:21;;;;;;;58.70;55.40;;;;;;;15.83;100.00;100569.68;1940850;73;26786;-71
2022/05/24 10:40:57;;;;;;;67.63;63.63;;;;;;;15.64;100.00;100568.34;2010254;70;26274;-71
2022/05/24 10:43:56;;;;;;;67.63;63.73;;;;;;;15.68;100.00;100569.33;2011502;70;26203;-72
2022/05/24 10:46:30;;;;;;;66.90;62.70;;;;;;;15.74;100.00;100568.87;1931136;73;26291;-72
2022/05/24 10:52:15;;;;;;;58.00;55.00;;;;;;;16.34;100.00;100563.27;2060733;69;32707;-71
2022/05/24 10:54:49;;;;;;;57.07;54.17;;;;;;;16.37;100.00;100571.05;2018382;70;26235;-71
2022/05/24 11:00:32;;;;;;;55.90;52.93;;;;;;;16.43;100.00;100563.88;2053070;69;32737;-72
2022/05/24 11:06:15;;;;;;;53.13;50.47;;;;;;;16.42;100.00;100573.43;2052858;69;32702;-70
2022/05/24 11:08:50;;;;;;;56.93;54.03;;;;;;;16.01;100.00;100581.73;2019026;70;26237;-70
2022/05/24 11:11:26;;;;;;;63.73;60.40;;;;;;;15.78;100.00;100595.06;1935618;73;26733;-72
2022/05/24 11:14:00;;;;;;;65.60;61.90;;;;;;;15.79;100.00;100597.27;2017681;70;26771;-72
2022/05/24 11:16:35;;;;;;;66.23;62.33;;;;;;;15.90;100.00;100607.03;2022320;70;26209;-71
2022/05/24 11:19:10;;;;;;;69.83;65.90;;;;;;;15.87;100.00;100614.69;2016615;71;26195;-72
2022/05/24 11:24:52;;;;;;;68.20;64.20;;;;;;;15.55;100.00;100612.28;2060447;69;32605;-70
2022/05/24 11:27:29;;;;;;;64.63;61.03;;;;;;;15.55;100.00;100622.08;2013710;70;26212;-70
2022/05/24 11:30:02;;;;;;;58.97;55.97;;;;;;;15.57;100.00;100623.99;2016559;70;26665;-71
2022/05/24 11:32:39;;;;;;;58.47;55.47;;;;;;;15.56;100.00;100630.16;2016290;70;26215;-70
2022/05/24 11:35:13;;;;;;;50.60;48.13;;;;;;;15.72;100.00;100620.16;2019407;70;26259;-71
2022/05/24 11:37:45;;;;;;;52.77;50.07;;;;;;;15.74;100.00;100612.84;2012837;70;26220;-70
2022/05/24 11:44:04;;;;;;;50.73;48.33;;;;;;;15.88;100.00;100612.11;2047672;69;32638;-71
2022/05/24 11:46:48;;;;;;;43.20;41.03;;;;;;;15.95;100.00;100613.88;2013917;71;26187;-70
2022/05/24 11:49:59;;;;;;;53.20;50.40;;;;;;;16.11;100.00;100603.84;1926826;73;26722;-71
2022/05/24 11:52:45;;;;;;;42.40;40.40;;;;;;;16.78;100.00;100611.76;1936208;73;26281;-71
2022/05/24 11:55:45;;;;;;;41.20;39.30;;;;;;;17.01;100.00;100603.96;1937879;73;24144;-71
2022/05/24 12:01:53;;;;;;;38.00;36.30;;;;;;;17.52;100.00;100602.36;2053409;69;32620;-72
2022/05/24 12:10:53;;;;;;;36.30;34.60;;;;;;;17.23;100.00;100619.17;2058343;69;32615;-71
2022/05/24 12:13:54;;;;;;;38.90;37.03;;;;;;;17.03;100.00;100632.53;2010197;70;26212;-70
2022/05/24 12:16:37;;;;;;;47.10;44.80;;;;;;;17.11;100.00;100632.51;2016605;71;24169;-71
2022/05/24 12:19:09;;;;;;;39.40;37.50;;;;;;;17.62;100.00;100625.90;2012397;70;24151;-71
2022/05/24 12:21:44;;;;;;;34.97;33.47;;;;;;;17.77;100.00;100623.66;1963716;72;24151;-70
2022/05/24 12:27:57;;;;;;;34.63;33.03;;;;;;;17.68;100.00;100625.94;2060828;69;32627;-69
2022/05/24 12:34:00;;;;;;;34.20;32.70;;;;;;;16.86;100.00;100633.36;2052996;69;33097;-70
2022/05/24 12:36:38;;;;;;;31.83;30.33;;;;;;;16.80;100.00;100643.12;2014841;70;24364;-72
2022/05/24 12:39:16;;;;;;;26.60;25.33;;;;;;;16.93;100.00;100646.31;2016592;70;26700;-71
2022/05/24 12:41:52;;;;;;;29.63;28.23;;;;;;;16.91;100.00;100632.36;2024348;70;24152;-71
2022/05/24 12:44:25;;;;;;;26.77;25.57;;;;;;;17.21;100.00;100622.88;2017440;70;26605;-71
2022/05/24 12:46:58;;;;;;;25.07;23.87;;;;;;;17.50;100.00;100620.11;2012636;70;24169;-71
2022/05/24 12:49:31;;;;;;;26.53;25.23;;;;;;;17.73;100.00;100620.70;1937708;74;26635;-73
2022/05/24 12:52:07;;;;;;;24.67;23.47;;;;;;;17.78;100.00;100616.30;1937078;73;24281;-73
2022/05/24 12:54:40;;;;;;;23.10;22.00;;;;;;;17.88;100.00;100620.14;1936137;73;24604;-73
2022/05/24 13:00:23;;;;;;;20.30;19.40;;;;;;;18.05;100.00;100620.03;2034544;69;30596;-71
2022/05/24 13:02:55;;;;;;;14.77;14.17;;;;;;;18.23;100.00;100624.92;1937160;73;24591;-73
2022/05/24 13:05:28;;;;;;;13.20;12.70;;;;;;;18.25;100.00;100619.80;1940000;73;24218;-71
2022/05/24 13:08:01;;;;;;;14.83;14.13;;;;;;;18.41;100.00;100621.39;1965465;72;26376;-71
2022/05/24 13:10:35;;;;;;;14.00;13.50;;;;;;;18.50;100.00;100613.72;1968393;72;26781;-72
2022/05/24 13:13:09;;;;;;;12.23;11.83;;;;;;;18.65;100.00;100612.52;1937642;74;26304;-73
2022/05/24 13:15:42;;;;;;;10.63;10.23;;;;;;;18.56;100.00;100608.98;1965126;72;24272;-71
2022/05/24 13:18:16;;;;;;;10.83;10.43;;;;;;;18.61;100.00;100607.95;1938822;73;24260;-72
2022/05/24 13:20:48;;;;;;;10.90;10.40;;;;;;;18.54;100.00;100614.13;1937645;73;24176;-74
2022/05/24 13:23:25;;;;;;;10.63;10.23;;;;;;;18.77;100.00;100607.55;1937537;74;24657;-71
2022/05/24 13:25:58;;;;;;;11.00;10.50;;;;;;;18.90;100.00;100620.49;1946411;73;24195;-74
2022/05/24 13:28:40;;;;;;;10.70;10.30;;;;;;;18.58;100.00;100622.11;1946371;73;24119;-71